sensor_id;sensor_type;location;lat;lon;timestamp;P1;durP1;ratioP1;P2;durP2;ratioP2
22861;SDS011;11598;50.652;6.172;2022-07-23T00:08:46;28.30;;;15.88;;
22861;SDS011;11598;50.652;6.172;2022-07-23T00:18:47;29.65;;;17.58;;
22861;SDS011;11598;50.652;6.172;2022-07-23T00:28:47;30.90;;;16.52;;
22861;SDS011;11598;50.652;6.172;2022-07-23T00:38:47;26.65;;;17.52;;
22861;SDS011;11598;50.652;6.172;2022-07-23T00:48:48;28.45;;;18.08;;
22861;SDS011;11598;50.652;6.172;2022-07-23T00:58:49;29.55;;;18.73;;
22861;SDS011;11598;50.652;6.172;2022-07-23T01:08:50;27.88;;;20.00;;
22861;SDS011;11598;50.652;6.172;2022-07-23T01:18:50;29.63;;;20.60;;
22861;SDS011;11598;50.652;6.172;2022-07-23T01:28:50;36.05;;;23.38;;
22861;SDS011;11598;50.652;6.172;2022-07-23T01:38:52;40.58;;;27.15;;
22861;SDS011;11598;50.652;6.172;2022-07-23T01:48:52;38.88;;;25.73;;
22861;SDS011;11598;50.652;6.172;2022-07-23T01:58:53;41.72;;;29.17;;
22861;SDS011;11598;50.652;6.172;2022-07-23T02:08:53;50.83;;;32.33;;
22861;SDS011;11598;50.652;6.172;2022-07-23T02:18:53;40.08;;;26.45;;
22861;SDS011;11598;50.652;6.172;2022-07-23T02:28:54;49.20;;;31.58;;
22861;SDS011;11598;50.652;6.172;2022-07-23T02:38:54;32.47;;;21.63;;
22861;SDS011;11598;50.652;6.172;2022-07-23T02:48:55;37.67;;;22.05;;
22861;SDS011;11598;50.652;6.172;2022-07-23T02:58:55;43.28;;;28.33;;
22861;SDS011;11598;50.652;6.172;2022-07-23T03:08:55;39.42;;;23.63;;
22861;SDS011;11598;50.652;6.172;2022-07-23T03:18:56;43.53;;;26.17;;
22861;SDS011;11598;50.652;6.172;2022-07-23T03:28:56;41.90;;;25.85;;
22861;SDS011;11598;50.652;6.172;2022-07-23T03:38:56;57.58;;;31.50;;
22861;SDS011;11598;50.652;6.172;2022-07-23T03:48:57;60.80;;;34.50;;
22861;SDS011;11598;50.652;6.172;2022-07-23T03:58:57;57.65;;;34.20;;
22861;SDS011;11598;50.652;6.172;2022-07-23T04:08:57;51.38;;;31.60;;
22861;SDS011;11598;50.652;6.172;2022-07-23T04:18:59;55.00;;;31.85;;
22861;SDS011;11598;50.652;6.172;2022-07-23T04:28:59;50.85;;;29.25;;
22861;SDS011;11598;50.652;6.172;2022-07-23T04:39:00;51.20;;;32.35;;
22861;SDS011;11598;50.652;6.172;2022-07-23T04:49:00;44.15;;;27.88;;
22861;SDS011;11598;50.652;6.172;2022-07-23T04:59:00;41.65;;;28.95;;
22861;SDS011;11598;50.652;6.172;2022-07-23T05:09:01;41.10;;;27.08;;
22861;SDS011;11598;50.652;6.172;2022-07-23T05:19:01;41.75;;;27.90;;
22861;SDS011;11598;50.652;6.172;2022-07-23T05:29:01;37.58;;;26.10;;
22861;SDS011;11598;50.652;6.172;2022-07-23T05:39:02;36.85;;;25.88;;
22861;SDS011;11598;50.652;6.172;2022-07-23T05:49:03;35.50;;;25.48;;
22861;SDS011;11598;50.652;6.172;2022-07-23T05:59:03;28.58;;;20.40;;
22861;SDS011;11598;50.652;6.172;2022-07-23T06:09:04;16.85;;;12.63;;
22861;SDS011;11598;50.652;6.172;2022-07-23T06:19:04;14.82;;;8.07;;
22861;SDS011;11598;50.652;6.172;2022-07-23T06:29:05;15.25;;;9.80;;
22861;SDS011;11598;50.652;6.172;2022-07-23T06:39:05;15.50;;;9.10;;
22861;SDS011;11598;50.652;6.172;2022-07-23T06:49:06;14.30;;;8.90;;
22861;SDS011;11598;50.652;6.172;2022-07-23T06:59:06;11.45;;;8.25;;
22861;SDS011;11598;50.652;6.172;2022-07-23T07:09:06;14.57;;;10.00;;
22861;SDS011;11598;50.652;6.172;2022-07-23T07:19:07;18.70;;;10.10;;
22861;SDS011;11598;50.652;6.172;2022-07-23T07:29:07;19.88;;;14.25;;
22861;SDS011;11598;50.652;6.172;2022-07-23T07:39:08;17.45;;;11.77;;
22861;SDS011;11598;50.652;6.172;2022-07-23T07:49:10;20.25;;;13.60;;
22861;SDS011;11598;50.652;6.172;2022-07-23T07:59:10;14.98;;;10.10;;
22861;SDS011;11598;50.652;6.172;2022-07-23T08:09:11;14.80;;;8.87;;
22861;SDS011;11598;50.652;6.172;2022-07-23T08:19:11;16.95;;;9.82;;
22861;SDS011;11598;50.652;6.172;2022-07-23T08:29:12;15.82;;;9.00;;
22861;SDS011;11598;50.652;6.172;2022-07-23T08:39:12;16.40;;;7.68;;
22861;SDS011;11598;50.652;6.172;2022-07-23T08:49:13;14.63;;;8.15;;
22861;SDS011;11598;50.652;6.172;2022-07-23T08:59:14;17.92;;;10.60;;
22861;SDS011;11598;50.652;6.172;2022-07-23T09:09:18;18.13;;;9.40;;
22861;SDS011;11598;50.652;6.172;2022-07-23T09:19:20;12.57;;;8.63;;
22861;SDS011;11598;50.652;6.172;2022-07-23T09:29:27;12.73;;;7.40;;
22861;SDS011;11598;50.652;6.172;2022-07-23T09:39:29;16.67;;;8.75;;
22861;SDS011;11598;50.652;6.172;2022-07-23T09:49:31;9.47;;;5.17;;
22861;SDS011;11598;50.652;6.172;2022-07-23T09:59:35;10.50;;;6.63;;
22861;SDS011;11598;50.652;6.172;2022-07-23T10:09:38;15.35;;;8.18;;
22861;SDS011;11598;50.652;6.172;2022-07-23T10:19:39;11.77;;;7.05;;
22861;SDS011;11598;50.652;6.172;2022-07-23T10:29:47;8.73;;;5.65;;
22861;SDS011;11598;50.652;6.172;2022-07-23T10:40:14;10.52;;;6.85;;
22861;SDS011;11598;50.652;6.172;2022-07-23T10:50:22;10.13;;;4.70;;
22861;SDS011;11598;50.652;6.172;2022-07-23T11:00:28;6.78;;;4.32;;
22861;SDS011;11598;50.652;6.172;2022-07-23T11:11:31;7.80;;;3.50;;
22861;SDS011;11598;50.652;6.172;2022-07-23T11:31:29;9.15;;;3.08;;
22861;SDS011;11598;50.652;6.172;2022-07-23T11:41:30;6.50;;;3.28;;
22861;SDS011;11598;50.652;6.172;2022-07-23T11:51:44;7.60;;;3.30;;
22861;SDS011;11598;50.652;6.172;2022-07-23T12:02:00;6.50;;;3.45;;
22861;SDS011;11598;50.652;6.172;2022-07-23T12:12:02;8.07;;;4.30;;
22861;SDS011;11598;50.652;6.172;2022-07-23T12:22:03;7.07;;;3.13;;
22861;SDS011;11598;50.652;6.172;2022-07-23T12:32:26;7.13;;;3.33;;
22861;SDS011;11598;50.652;6.172;2022-07-23T12:42:26;5.40;;;2.72;;
22861;SDS011;11598;50.652;6.172;2022-07-23T12:52:28;7.30;;;4.30;;
22861;SDS011;11598;50.652;6.172;2022-07-23T13:02:44;5.43;;;3.13;;
22861;SDS011;11598;50.652;6.172;2022-07-23T13:12:44;5.03;;;2.80;;
22861;SDS011;11598;50.652;6.172;2022-07-23T13:22:45;6.40;;;3.28;;
22861;SDS011;11598;50.652;6.172;2022-07-23T13:32:45;7.22;;;2.75;;
22861;SDS011;11598;50.652;6.172;2022-07-23T13:42:48;6.10;;;3.00;;
22861;SDS011;11598;50.652;6.172;2022-07-23T13:52:49;6.20;;;3.33;;
22861;SDS011;11598;50.652;6.172;2022-07-23T14:02:49;7.50;;;3.53;;
22861;SDS011;11598;50.652;6.172;2022-07-23T14:12:50;5.82;;;3.13;;
22861;SDS011;11598;50.652;6.172;2022-07-23T14:22:52;6.88;;;3.25;;
22861;SDS011;11598;50.652;6.172;2022-07-23T14:32:55;5.82;;;3.13;;
22861;SDS011;11598;50.652;6.172;2022-07-23T14:42:56;5.65;;;3.35;;
22861;SDS011;11598;50.652;6.172;2022-07-23T14:52:56;5.55;;;3.05;;
22861;SDS011;11598;50.652;6.172;2022-07-23T15:02:56;6.05;;;3.15;;
22861;SDS011;11598;50.652;6.172;2022-07-23T15:12:57;6.68;;;3.10;;
22861;SDS011;11598;50.652;6.172;2022-07-23T15:22:57;5.70;;;2.75;;
22861;SDS011;11598;50.652;6.172;2022-07-23T15:32:57;6.93;;;3.30;;
22861;SDS011;11598;50.652;6.172;2022-07-23T15:42:58;6.85;;;3.45;;
22861;SDS011;11598;50.652;6.172;2022-07-23T15:52:58;7.03;;;3.40;;
22861;SDS011;11598;50.652;6.172;2022-07-23T16:02:59;8.80;;;3.55;;
22861;SDS011;11598;50.652;6.172;2022-07-23T16:12:59;6.07;;;3.00;;
22861;SDS011;11598;50.652;6.172;2022-07-23T16:23:00;6.88;;;3.25;;
22861;SDS011;11598;50.652;6.172;2022-07-23T16:33:00;4.57;;;2.65;;
22861;SDS011;11598;50.652;6.172;2022-07-23T16:43:00;4.40;;;2.63;;
22861;SDS011;11598;50.652;6.172;2022-07-23T16:53:01;5.20;;;2.97;;
22861;SDS011;11598;50.652;6.172;2022-07-23T17:03:02;6.47;;;3.17;;
22861;SDS011;11598;50.652;6.172;2022-07-23T17:13:02;7.82;;;3.28;;
22861;SDS011;11598;50.652;6.172;2022-07-23T17:23:03;6.10;;;3.38;;
22861;SDS011;11598;50.652;6.172;2022-07-23T17:33:03;8.45;;;2.92;;
22861;SDS011;11598;50.652;6.172;2022-07-23T17:43:03;6.20;;;3.20;;
22861;SDS011;11598;50.652;6.172;2022-07-23T17:53:04;7.28;;;3.78;;
22861;SDS011;11598;50.652;6.172;2022-07-23T18:03:05;5.50;;;3.30;;
22861;SDS011;11598;50.652;6.172;2022-07-23T18:13:06;6.85;;;3.00;;
22861;SDS011;11598;50.652;6.172;2022-07-23T18:23:06;6.65;;;3.00;;
22861;SDS011;11598;50.652;6.172;2022-07-23T18:33:07;5.68;;;3.28;;
22861;SDS011;11598;50.652;6.172;2022-07-23T18:43:07;5.85;;;2.85;;
22861;SDS011;11598;50.652;6.172;2022-07-23T18:53:08;6.63;;;3.38;;
22861;SDS011;11598;50.652;6.172;2022-07-23T19:03:09;7.20;;;3.20;;
22861;SDS011;11598;50.652;6.172;2022-07-23T19:13:10;5.88;;;2.80;;
22861;SDS011;11598;50.652;6.172;2022-07-23T19:23:11;6.82;;;3.05;;
22861;SDS011;11598;50.652;6.172;2022-07-23T19:33:12;9.13;;;6.82;;
22861;SDS011;11598;50.652;6.172;2022-07-23T19:43:12;5.88;;;3.15;;
22861;SDS011;11598;50.652;6.172;2022-07-23T19:53:13;5.47;;;4.05;;
22861;SDS011;11598;50.652;6.172;2022-07-23T20:03:13;6.18;;;3.42;;
22861;SDS011;11598;50.652;6.172;2022-07-23T20:13:13;5.32;;;3.13;;
22861;SDS011;11598;50.652;6.172;2022-07-23T20:23:14;5.15;;;2.92;;
22861;SDS011;11598;50.652;6.172;2022-07-23T20:33:15;7.18;;;4.28;;
22861;SDS011;11598;50.652;6.172;2022-07-23T20:43:16;5.80;;;3.53;;
22861;SDS011;11598;50.652;6.172;2022-07-23T20:53:17;6.57;;;4.18;;
22861;SDS011;11598;50.652;6.172;2022-07-23T21:03:18;6.93;;;3.95;;
22861;SDS011;11598;50.652;6.172;2022-07-23T21:13:20;8.45;;;3.92;;
22861;SDS011;11598;50.652;6.172;2022-07-23T21:23:20;5.18;;;3.38;;
22861;SDS011;11598;50.652;6.172;2022-07-23T21:33:20;6.95;;;3.63;;
22861;SDS011;11598;50.652;6.172;2022-07-23T21:43:21;7.47;;;3.45;;
22861;SDS011;11598;50.652;6.172;2022-07-23T21:53:22;9.98;;;3.90;;
22861;SDS011;11598;50.652;6.172;2022-07-23T22:03:22;7.75;;;4.10;;
22861;SDS011;11598;50.652;6.172;2022-07-23T22:13:22;8.57;;;3.95;;
22861;SDS011;11598;50.652;6.172;2022-07-23T22:23:23;7.50;;;3.70;;
22861;SDS011;11598;50.652;6.172;2022-07-23T22:33:24;7.80;;;4.18;;
22861;SDS011;11598;50.652;6.172;2022-07-23T22:43:24;10.40;;;4.72;;
22861;SDS011;11598;50.652;6.172;2022-07-23T22:53:24;7.95;;;4.57;;
22861;SDS011;11598;50.652;6.172;2022-07-23T23:03:25;8.23;;;4.45;;
22861;SDS011;11598;50.652;6.172;2022-07-23T23:13:25;10.43;;;4.80;;
22861;SDS011;11598;50.652;6.172;2022-07-23T23:23:25;9.70;;;4.85;;
22861;SDS011;11598;50.652;6.172;2022-07-23T23:33:26;9.82;;;4.88;;
22861;SDS011;11598;50.652;6.172;2022-07-23T23:43:26;8.45;;;4.70;;
22861;SDS011;11598;50.652;6.172;2022-07-23T23:53:27;7.43;;;4.50;;
